createdAt,value
2018-06-10T00:02:00.244Z,99.40
2018-06-10T00:04:29.479Z,99.30
2018-06-10T00:06:58.751Z,99.20
2018-06-10T00:09:28.807Z,99.40
2018-06-10T00:11:58.101Z,99.60
2018-06-10T00:14:27.315Z,99.60
2018-06-10T00:16:56.564Z,99.60
2018-06-10T00:19:25.816Z,99.40
2018-06-10T00:24:23.947Z,97.70
2018-06-10T00:26:53.592Z,98.70
2018-06-10T00:29:23.270Z,99.90
2018-06-10T00:31:52.528Z,99.90
2018-06-10T00:34:22.093Z,99.90
2018-06-10T00:36:51.375Z,99.90
2018-06-10T00:39:21.564Z,99.90
2018-06-10T00:41:51.059Z,99.90
2018-06-10T00:44:20.342Z,99.90
2018-06-10T00:46:49.637Z,99.90
2018-06-10T00:49:19.045Z,99.90
2018-06-10T00:51:50.059Z,99.90
2018-06-10T00:54:19.411Z,99.90
2018-06-10T00:56:51.707Z,99.90
2018-06-10T00:59:21.407Z,99.90
2018-06-10T01:01:50.730Z,99.90
2018-06-10T01:04:20.004Z,99.90
2018-06-10T01:06:49.262Z,99.90
2018-06-10T01:09:18.524Z,99.90
2018-06-10T01:11:47.755Z,99.90
2018-06-10T01:14:17.023Z,99.90
2018-06-10T01:16:46.260Z,99.90
2018-06-10T01:19:15.540Z,99.90
2018-06-10T01:21:44.778Z,99.90
2018-06-10T01:24:14.223Z,99.90
2018-06-10T01:26:48.753Z,99.90
2018-06-10T01:29:18.422Z,99.90
2018-06-10T01:31:47.783Z,99.90
2018-06-10T01:34:17.069Z,99.90
2018-06-10T01:36:46.332Z,99.90
2018-06-10T01:39:15.585Z,99.90
2018-06-10T01:41:44.847Z,99.90
2018-06-10T01:44:14.283Z,99.90
2018-06-10T01:46:43.596Z,99.90
2018-06-10T01:49:12.899Z,99.90
2018-06-10T01:51:42.108Z,99.90
2018-06-10T01:54:11.362Z,99.90
2018-06-10T01:56:40.610Z,99.90
2018-06-10T01:59:09.840Z,99.90
2018-06-10T02:01:39.063Z,99.90
2018-06-10T02:04:08.634Z,99.90
2018-06-10T02:06:38.446Z,99.90
2018-06-10T02:09:08.073Z,99.90
2018-06-10T02:11:37.306Z,99.90
2018-06-10T02:14:07.197Z,99.90
2018-06-10T02:16:36.565Z,99.90
2018-06-10T02:19:05.981Z,99.90
2018-06-10T02:21:35.217Z,99.90
2018-06-10T02:24:04.566Z,99.90
2018-06-10T02:26:33.780Z,99.90
2018-06-10T02:29:03.028Z,99.90
2018-06-10T02:31:32.276Z,99.90
2018-06-10T02:34:01.516Z,99.90
2018-06-10T02:36:30.964Z,99.90
2018-06-10T02:39:00.173Z,99.90
2018-06-10T02:41:29.367Z,99.90
2018-06-10T02:43:59.203Z,99.90
2018-06-10T02:46:28.466Z,99.90
2018-06-10T02:48:57.796Z,99.90
2018-06-10T02:51:27.058Z,99.90
2018-06-10T02:53:56.315Z,99.90
2018-06-10T02:56:25.621Z,99.90
2018-06-10T03:01:24.278Z,99.90
2018-06-10T03:03:53.487Z,99.90
2018-06-10T03:06:22.764Z,99.90
2018-06-10T03:08:52.060Z,99.90
2018-06-10T03:13:50.337Z,99.90
2018-06-10T03:16:19.647Z,99.90
2018-06-10T03:18:48.976Z,99.90
2018-06-10T03:21:18.283Z,99.90
2018-06-10T03:23:47.518Z,99.90
2018-06-10T03:26:16.728Z,99.90
2018-06-10T03:28:45.914Z,99.90
2018-06-10T03:31:15.151Z,99.90
2018-06-10T03:33:44.394Z,99.90
2018-06-10T03:36:14.068Z,99.90
2018-06-10T03:38:43.893Z,99.90
2018-06-10T03:41:13.240Z,99.90
2018-06-10T03:43:42.538Z,99.90
2018-06-10T03:46:11.749Z,99.90
2018-06-10T03:48:40.979Z,99.90
2018-06-10T03:51:10.263Z,99.90
2018-06-10T03:53:39.468Z,99.90
2018-06-10T03:56:08.763Z,99.90
2018-06-10T03:58:38.064Z,99.90
2018-06-10T04:01:07.426Z,99.90
2018-06-10T04:03:36.747Z,99.90
2018-06-10T04:06:06.037Z,99.90
2018-06-10T04:08:35.586Z,99.90
2018-06-10T04:11:04.920Z,99.90
2018-06-10T04:13:34.231Z,99.90
2018-06-10T04:16:04.505Z,99.90
2018-06-10T04:18:33.716Z,99.90
2018-06-10T04:21:02.963Z,99.90
2018-06-10T04:23:32.206Z,99.90
2018-06-10T04:28:30.308Z,99.90
2018-06-10T04:30:59.547Z,99.90
2018-06-10T04:33:29.199Z,99.90
2018-06-10T04:35:59.432Z,99.90
2018-06-10T04:38:28.755Z,99.90
2018-06-10T04:40:58.792Z,99.90
2018-06-10T04:45:57.290Z,99.90
2018-06-10T04:48:27.287Z,99.90
2018-06-10T04:50:56.604Z,99.90
2018-06-10T04:53:25.820Z,99.90
2018-06-10T04:55:55.105Z,99.90
2018-06-10T04:58:24.363Z,99.90
2018-06-10T05:00:53.633Z,99.90
2018-06-10T05:03:22.865Z,99.90
2018-06-10T05:05:52.126Z,99.90
2018-06-10T05:08:21.419Z,99.90
2018-06-10T05:10:50.691Z,99.90
2018-06-10T05:13:19.920Z,99.90
2018-06-10T05:15:49.205Z,99.90
2018-06-10T05:18:18.511Z,99.90
2018-06-10T05:20:48.467Z,99.90
2018-06-10T05:23:17.722Z,99.90
2018-06-10T05:25:47.523Z,99.90
2018-06-10T05:28:16.796Z,99.90
2018-06-10T05:30:46.798Z,99.90
2018-06-10T05:33:16.396Z,99.90
2018-06-10T05:35:45.652Z,99.90
2018-06-10T05:38:14.908Z,99.90
2018-06-10T05:40:44.124Z,99.90
2018-06-10T05:43:13.479Z,99.90
2018-06-10T05:45:42.744Z,99.90
2018-06-10T05:48:12.026Z,99.90
2018-06-10T05:50:41.262Z,99.90
2018-06-10T05:53:10.529Z,99.90
2018-06-10T05:55:39.800Z,99.90
2018-06-10T05:58:09.172Z,99.90
2018-06-10T06:00:38.724Z,99.90
2018-06-10T06:03:08.019Z,99.90
2018-06-10T06:05:37.287Z,99.90
2018-06-10T06:08:06.684Z,99.90
2018-06-10T06:10:35.940Z,99.90
2018-06-10T06:13:05.299Z,99.90
2018-06-10T06:18:03.363Z,99.90
2018-06-10T06:20:32.622Z,99.90
2018-06-10T06:23:01.893Z,99.90
2018-06-10T06:25:31.168Z,99.90
2018-06-10T06:28:00.416Z,99.90
2018-06-10T06:30:29.648Z,99.90
2018-06-10T06:32:58.944Z,99.90
2018-06-10T06:35:28.153Z,99.90
2018-06-10T06:37:57.436Z,99.90
2018-06-10T06:40:26.662Z,99.90
2018-06-10T06:45:25.419Z,99.90
2018-06-10T06:47:54.706Z,99.90
2018-06-10T06:50:24.033Z,99.90
2018-06-10T06:52:53.316Z,99.90
2018-06-10T06:55:22.541Z,99.90
2018-06-10T06:57:51.848Z,99.90
2018-06-10T07:00:21.219Z,99.90
2018-06-10T07:02:50.551Z,99.90
2018-06-10T07:05:19.823Z,99.90
2018-06-10T07:07:49.101Z,99.90
2018-06-10T07:10:18.370Z,99.90
2018-06-10T07:12:48.303Z,99.90
2018-06-10T07:15:17.645Z,99.90
2018-06-10T07:17:46.964Z,99.90
2018-06-10T07:20:16.226Z,99.90
2018-06-10T07:22:45.482Z,99.90
2018-06-10T07:25:15.054Z,99.90
2018-06-10T07:27:44.360Z,99.90
2018-06-10T07:30:13.623Z,99.90
2018-06-10T07:32:42.874Z,99.90
2018-06-10T07:35:12.162Z,99.90
2018-06-10T07:37:41.491Z,99.90
2018-06-10T07:40:10.736Z,99.90
2018-06-10T07:42:40.025Z,99.90
2018-06-10T07:45:09.339Z,99.90
2018-06-10T07:47:38.762Z,99.90
2018-06-10T07:50:08.013Z,99.90
2018-06-10T07:52:37.260Z,99.90
2018-06-10T07:55:06.549Z,99.90
2018-06-10T07:57:35.921Z,99.90
2018-06-10T08:00:05.596Z,99.90
2018-06-10T08:02:35.040Z,99.90
2018-06-10T08:05:04.453Z,99.90
2018-06-10T08:07:33.724Z,99.90
2018-06-10T08:10:03.032Z,99.90
2018-06-10T08:12:32.239Z,99.90
2018-06-10T08:15:01.468Z,99.90
2018-06-10T08:17:31.135Z,99.90
2018-06-10T08:20:00.458Z,99.90
2018-06-10T08:22:29.792Z,99.90
2018-06-10T08:24:59.356Z,99.90
2018-06-10T08:27:28.671Z,99.90
2018-06-10T08:29:57.995Z,99.90
2018-06-10T08:32:27.310Z,99.90
2018-06-10T08:34:56.539Z,99.90
2018-06-10T08:37:25.798Z,99.90
2018-06-10T08:39:55.182Z,99.90
2018-06-10T08:42:24.379Z,99.90
2018-06-10T08:44:53.652Z,99.90
2018-06-10T08:47:22.941Z,99.90
2018-06-10T08:49:52.210Z,99.90
2018-06-10T08:52:21.505Z,99.90
2018-06-10T08:54:50.841Z,99.90
2018-06-10T08:57:20.195Z,99.90
2018-06-10T08:59:49.645Z,99.90
2018-06-10T09:02:18.977Z,99.90
2018-06-10T09:04:48.361Z,99.90
2018-06-10T09:07:17.664Z,99.90
2018-06-10T09:09:46.952Z,99.90
2018-06-10T09:12:16.360Z,99.90
2018-06-10T09:14:45.676Z,99.90
2018-06-10T09:17:14.982Z,99.20
2018-06-10T09:19:44.929Z,99.90
2018-06-10T09:22:14.265Z,99.90
2018-06-10T09:24:43.531Z,99.90
2018-06-10T09:27:12.795Z,99.20
2018-06-10T09:29:42.140Z,98.30
2018-06-10T09:32:11.478Z,99.30
2018-06-10T09:34:40.724Z,99.90
2018-06-10T09:37:10.060Z,99.90
2018-06-10T09:39:39.421Z,99.90
2018-06-10T09:42:08.814Z,99.30
2018-06-10T09:44:38.163Z,98.80
2018-06-10T09:47:07.415Z,99.10
2018-06-10T09:49:36.727Z,98.90
2018-06-10T09:52:06.120Z,99.20
2018-06-10T09:54:35.475Z,98.00
2018-06-10T09:57:04.959Z,98.00
2018-06-10T09:59:34.272Z,97.90
2018-06-10T10:02:03.630Z,98.40
2018-06-10T10:04:32.921Z,98.10
2018-06-10T10:07:02.257Z,97.30
2018-06-10T10:09:32.399Z,97.80
2018-06-10T10:12:01.715Z,97.80
2018-06-10T10:14:31.080Z,98.40
2018-06-10T10:17:01.192Z,98.20
2018-06-10T10:19:31.108Z,98.50
2018-06-10T10:22:00.483Z,97.70
2018-06-10T10:24:29.841Z,96.90
2018-06-10T10:26:59.114Z,97.30
2018-06-10T10:29:28.419Z,98.10
2018-06-10T10:31:57.813Z,97.00
2018-06-10T10:34:27.142Z,96.60
2018-06-10T10:36:56.500Z,97.60
2018-06-10T10:39:25.844Z,97.40
2018-06-10T10:41:55.183Z,97.30
2018-06-10T10:44:24.469Z,97.10
2018-06-10T10:46:54.804Z,97.00
2018-06-10T10:49:24.472Z,97.90
2018-06-10T10:51:53.764Z,96.60
2018-06-10T10:54:23.077Z,96.20
2018-06-10T10:56:52.381Z,94.90
2018-06-10T10:59:21.679Z,94.60
2018-06-10T11:01:50.975Z,95.70
2018-06-10T11:04:20.251Z,95.40
2018-06-10T11:06:49.621Z,95.50
2018-06-10T11:09:18.815Z,94.50
2018-06-10T11:11:50.083Z,92.80
2018-06-10T11:14:19.351Z,93.00
2018-06-10T11:16:48.736Z,93.20
2018-06-10T11:19:17.959Z,92.50
2018-06-10T11:21:47.272Z,92.70
2018-06-10T11:24:16.593Z,93.50
2018-06-10T11:26:45.994Z,92.90
2018-06-10T11:29:15.345Z,91.20
2018-06-10T11:31:44.687Z,90.20
2018-06-10T11:34:14.031Z,90.70
2018-06-10T11:36:43.368Z,89.70
2018-06-10T11:39:12.727Z,90.50
2018-06-10T11:41:42.101Z,90.10
2018-06-10T11:44:11.364Z,88.00
2018-06-10T11:46:40.623Z,89.60
2018-06-10T11:49:09.939Z,89.70
2018-06-10T11:51:39.299Z,90.40
2018-06-10T11:54:08.582Z,90.70
2018-06-10T11:56:38.701Z,89.60
2018-06-10T11:59:07.994Z,90.10
2018-06-10T12:01:38.092Z,90.20
2018-06-10T12:04:07.757Z,87.60
2018-06-10T12:09:08.189Z,90.20
2018-06-10T12:11:37.980Z,89.60
2018-06-10T12:14:07.436Z,87.90
2018-06-10T12:16:36.795Z,85.00
2018-06-10T12:19:06.983Z,87.80
2018-06-10T12:21:36.360Z,89.10
2018-06-10T12:24:05.656Z,88.40
2018-06-10T12:26:34.930Z,88.30
2018-06-10T12:29:05.124Z,87.70
2018-06-10T12:31:35.679Z,87.30
2018-06-10T12:34:05.924Z,88.80
2018-06-10T12:36:35.316Z,90.00
2018-06-10T12:39:07.706Z,89.70
2018-06-10T12:41:37.452Z,90.30
2018-06-10T12:44:06.840Z,89.70
2018-06-10T12:46:36.175Z,87.90
2018-06-10T12:49:05.712Z,87.20
2018-06-10T12:51:35.026Z,86.70
2018-06-10T12:54:06.294Z,87.40
2018-06-10T12:56:36.239Z,83.70
2018-06-10T12:59:05.735Z,81.70
2018-06-10T13:01:35.082Z,83.90
2018-06-10T13:04:05.174Z,83.70
2018-06-10T13:06:34.786Z,81.20
2018-06-10T13:09:06.400Z,80.50
2018-06-10T13:11:35.791Z,81.90
2018-06-10T13:14:05.356Z,83.40
2018-06-10T13:16:34.759Z,83.80
2018-06-10T13:19:04.101Z,81.60
2018-06-10T13:21:43.527Z,83.90
2018-06-10T13:24:13.564Z,84.60
2018-06-10T13:26:43.311Z,84.50
2018-06-10T13:29:12.952Z,83.30
2018-06-10T13:31:42.284Z,84.80
2018-06-10T13:34:11.592Z,85.30
2018-06-10T13:36:41.001Z,83.70
2018-06-10T13:39:10.380Z,84.50
2018-06-10T13:41:39.742Z,85.30
2018-06-10T13:44:09.040Z,83.10
2018-06-10T13:46:38.369Z,84.00
2018-06-10T13:49:07.711Z,86.00
2018-06-10T13:51:37.028Z,84.50
2018-06-10T13:54:07.125Z,85.20
2018-06-10T13:56:38.313Z,82.60
2018-06-10T13:59:12.028Z,83.80
2018-06-10T14:01:41.262Z,84.20
2018-06-10T14:04:10.574Z,84.30
2018-06-10T14:06:40.163Z,84.90
2018-06-10T14:09:09.884Z,84.50
2018-06-10T14:11:39.113Z,83.60
2018-06-10T14:14:08.392Z,83.90
2018-06-10T14:16:37.923Z,84.20
2018-06-10T14:21:38.243Z,85.60
2018-06-10T14:24:07.626Z,86.60
2018-06-10T14:26:37.752Z,84.40
2018-06-10T14:29:07.198Z,82.00
2018-06-10T14:31:36.560Z,83.00
2018-06-10T14:34:06.115Z,81.90
2018-06-10T14:36:35.624Z,81.70
2018-06-10T14:39:08.024Z,84.70
2018-06-10T14:41:42.736Z,85.30
2018-06-10T14:44:12.102Z,86.70
2018-06-10T14:46:41.804Z,85.50
2018-06-10T14:49:11.111Z,86.20
2018-06-10T14:51:54.094Z,86.10
2018-06-10T14:54:23.620Z,85.80
2018-06-10T14:56:53.243Z,83.40
2018-06-10T14:59:23.395Z,85.20
2018-06-10T15:01:53.500Z,85.30
2018-06-10T15:04:22.820Z,84.70
2018-06-10T15:06:52.288Z,84.20
2018-06-10T15:09:22.689Z,84.00
2018-06-10T15:11:51.980Z,83.80
2018-06-10T15:14:21.236Z,86.00
2018-06-10T15:16:50.561Z,85.30
2018-06-10T15:19:19.853Z,85.70
2018-06-10T15:21:49.159Z,85.90
2018-06-10T15:24:19.479Z,85.80
2018-06-10T15:26:50.571Z,86.50
2018-06-10T15:29:21.032Z,84.60
2018-06-10T15:31:50.340Z,86.00
2018-06-10T15:34:20.453Z,86.20
2018-06-10T15:36:49.709Z,86.00
2018-06-10T15:39:23.930Z,87.50
2018-06-10T15:41:53.533Z,88.00
2018-06-10T15:44:23.012Z,88.00
2018-06-10T15:46:52.543Z,88.30
2018-06-10T15:49:21.896Z,89.10
2018-06-10T15:51:51.193Z,90.00
2018-06-10T15:54:20.776Z,88.20
2018-06-10T15:59:19.333Z,89.50
2018-06-10T16:01:49.425Z,88.80
2018-06-10T16:04:19.400Z,89.90
2018-06-10T16:06:48.754Z,89.90
2018-06-10T16:09:18.125Z,89.70
2018-06-10T16:11:47.425Z,89.70
2018-06-10T16:14:17.346Z,89.70
2018-06-10T16:16:46.680Z,89.10
2018-06-10T16:19:16.601Z,90.00
2018-06-10T16:21:46.714Z,91.00
2018-06-10T16:24:16.008Z,90.60
2018-06-10T16:26:45.334Z,90.80
2018-06-10T16:29:14.649Z,90.30
2018-06-10T16:31:44.052Z,90.50
2018-06-10T16:34:13.944Z,90.80
2018-06-10T16:36:43.645Z,90.80
2018-06-10T16:39:12.956Z,90.30
2018-06-10T16:41:42.549Z,91.10
2018-06-10T16:44:11.823Z,91.20
2018-06-10T16:46:41.652Z,91.30
2018-06-10T16:49:11.042Z,91.60
2018-06-10T16:51:40.247Z,91.50
2018-06-10T16:54:09.566Z,91.60
2018-06-10T16:56:40.786Z,92.20
2018-06-10T16:59:10.319Z,91.70
2018-06-10T17:01:39.818Z,92.00
2018-06-10T17:04:09.133Z,91.90
2018-06-10T17:06:38.789Z,91.70
2018-06-10T17:09:08.992Z,92.60
2018-06-10T17:11:38.281Z,92.60
2018-06-10T17:14:07.554Z,93.00
2018-06-10T17:16:36.815Z,92.90
2018-06-10T17:19:06.129Z,93.00
2018-06-10T17:21:35.443Z,92.90
2018-06-10T17:24:04.820Z,93.20
2018-06-10T17:26:36.722Z,93.60
2018-06-10T17:29:06.070Z,93.40
2018-06-10T17:31:35.365Z,93.10
2018-06-10T17:34:05.051Z,93.20
2018-06-10T17:36:38.313Z,93.60
2018-06-10T17:39:08.090Z,93.90
2018-06-10T17:41:37.446Z,94.10
2018-06-10T17:44:06.738Z,94.00
2018-06-10T17:46:35.988Z,94.50
2018-06-10T17:49:05.285Z,94.10
2018-06-10T17:51:34.607Z,94.30
2018-06-10T17:54:03.909Z,94.40
2018-06-10T17:56:33.174Z,94.00
2018-06-10T17:59:02.594Z,94.00
2018-06-10T18:01:31.912Z,94.00
2018-06-10T18:04:01.192Z,94.20
2018-06-10T18:06:30.546Z,94.20
2018-06-10T18:09:00.402Z,94.50
2018-06-10T18:11:30.231Z,94.90
2018-06-10T18:14:04.752Z,94.90
2018-06-10T18:16:34.056Z,95.20
2018-06-10T18:19:03.549Z,95.40
2018-06-10T18:21:33.171Z,95.50
2018-06-10T18:24:03.333Z,95.50
2018-06-10T18:26:33.335Z,95.40
2018-06-10T18:29:03.758Z,95.60
2018-06-10T18:31:33.288Z,95.40
2018-06-10T18:34:02.562Z,95.40
2018-06-10T18:36:31.995Z,95.50
2018-06-10T18:39:02.268Z,95.40
2018-06-10T18:41:33.569Z,95.40
2018-06-10T18:44:03.636Z,95.30
2018-06-10T18:46:33.173Z,95.60
2018-06-10T18:49:02.448Z,95.80
2018-06-10T18:51:36.139Z,95.80
2018-06-10T18:54:09.084Z,95.70
2018-06-10T18:56:38.791Z,95.90
2018-06-10T18:59:08.188Z,96.20
2018-06-10T19:01:38.993Z,96.00
2018-06-10T19:04:10.192Z,96.20
2018-06-10T19:06:39.544Z,96.00
2018-06-10T19:09:10.178Z,96.30
2018-06-10T19:11:39.797Z,96.30
2018-06-10T19:14:09.178Z,96.30
2018-06-10T19:16:38.414Z,96.40
2018-06-10T19:19:07.727Z,96.50
2018-06-10T19:21:37.006Z,96.70
2018-06-10T19:24:06.426Z,96.70
2018-06-10T19:26:35.788Z,96.80
2018-06-10T19:29:05.263Z,97.00
2018-06-10T19:31:35.021Z,97.10
2018-06-10T19:34:04.320Z,97.20
2018-06-10T19:36:33.628Z,97.40
2018-06-10T19:39:03.009Z,97.50
2018-06-10T19:41:32.322Z,97.50
2018-06-10T19:44:02.227Z,97.80
2018-06-10T19:46:31.529Z,97.80
2018-06-10T19:49:00.827Z,97.80
2018-06-10T19:51:30.418Z,98.20
2018-06-10T19:53:59.765Z,98.30
2018-06-10T19:56:29.659Z,98.40
2018-06-10T19:58:59.168Z,98.50
2018-06-10T20:01:28.598Z,98.60
2018-06-10T20:03:57.919Z,98.90
2018-06-10T20:06:27.954Z,99.10
2018-06-10T20:08:57.290Z,98.70
2018-06-10T20:11:26.573Z,98.90
2018-06-10T20:13:56.367Z,99.20
2018-06-10T20:16:25.628Z,99.20
2018-06-10T20:18:54.979Z,99.10
2018-06-10T20:21:24.315Z,99.30
2018-06-10T20:23:53.585Z,99.30
2018-06-10T20:26:22.928Z,99.40
2018-06-10T20:28:52.212Z,99.60
2018-06-10T20:31:21.499Z,99.80
2018-06-10T20:33:51.808Z,99.70
2018-06-10T20:36:21.133Z,99.80
2018-06-10T20:38:50.425Z,99.80
2018-06-10T20:41:19.767Z,99.90
2018-06-10T20:43:49.051Z,99.90
2018-06-10T20:46:18.405Z,99.90
2018-06-10T20:48:47.727Z,99.90
2018-06-10T20:51:17.465Z,99.90
2018-06-10T20:53:47.131Z,99.90
2018-06-10T20:56:17.271Z,99.90
2018-06-10T20:58:46.565Z,99.90
2018-06-10T21:01:16.806Z,99.90
2018-06-10T21:03:46.139Z,99.90
2018-06-10T21:06:15.463Z,99.90
2018-06-10T21:08:44.768Z,99.90
2018-06-10T21:11:14.066Z,99.90
2018-06-10T21:13:44.187Z,99.90
2018-06-10T21:16:14.212Z,99.90
2018-06-10T21:18:43.508Z,99.90
2018-06-10T21:21:12.891Z,99.90
2018-06-10T21:23:42.108Z,99.90
2018-06-10T21:26:11.485Z,99.90
2018-06-10T21:28:40.809Z,99.90
2018-06-10T21:31:10.840Z,99.90
2018-06-10T21:33:45.424Z,99.90
2018-06-10T21:36:14.839Z,99.90
2018-06-10T21:38:44.118Z,99.90
2018-06-10T21:41:13.376Z,99.90
2018-06-10T21:43:42.691Z,99.90
2018-06-10T21:46:12.412Z,99.90
2018-06-10T21:48:41.787Z,99.90
2018-06-10T21:51:11.980Z,99.90
2018-06-10T21:53:44.990Z,99.90
2018-06-10T21:56:14.355Z,99.90
2018-06-10T21:58:43.658Z,99.90
2018-06-10T22:01:12.939Z,99.90
2018-06-10T22:03:43.109Z,99.90
2018-06-10T22:06:13.111Z,99.90
2018-06-10T22:08:42.419Z,99.90
2018-06-10T22:11:12.037Z,99.90
2018-06-10T22:13:41.439Z,99.90
2018-06-10T22:16:10.816Z,99.90
2018-06-10T22:18:40.328Z,99.90
2018-06-10T22:21:09.639Z,99.90
2018-06-10T22:23:39.577Z,99.90
2018-06-10T22:26:08.899Z,99.90
2018-06-10T22:28:38.132Z,99.90
2018-06-10T22:31:07.654Z,99.90
2018-06-10T22:33:36.903Z,99.90
2018-06-10T22:36:06.490Z,99.90
2018-06-10T22:38:36.097Z,99.90
2018-06-10T22:41:07.336Z,99.90
2018-06-10T22:43:37.124Z,99.90
2018-06-10T22:46:06.494Z,99.90
2018-06-10T22:48:35.808Z,99.90
2018-06-10T22:51:05.044Z,99.90
2018-06-10T22:54:40.765Z,99.90
2018-06-10T22:57:10.130Z,99.90
2018-06-10T22:59:40.373Z,99.90
2018-06-10T23:02:10.215Z,99.90
2018-06-10T23:04:39.537Z,99.90
2018-06-10T23:07:08.847Z,99.90
2018-06-10T23:09:38.116Z,99.90
2018-06-10T23:12:08.227Z,99.90
2018-06-10T23:14:37.488Z,99.90
2018-06-10T23:17:06.862Z,99.90
2018-06-10T23:19:36.117Z,99.90
2018-06-10T23:22:05.430Z,99.90
2018-06-10T23:24:34.743Z,99.90
2018-06-10T23:29:33.539Z,99.90
2018-06-10T23:32:02.804Z,99.90
2018-06-10T23:34:32.041Z,99.90
2018-06-10T23:37:01.288Z,99.90
2018-06-10T23:39:30.537Z,99.90
2018-06-10T23:41:59.775Z,99.90
2018-06-10T23:44:29.022Z,99.90
2018-06-10T23:46:58.269Z,99.90
2018-06-10T23:49:28.320Z,99.90
2018-06-10T23:51:57.554Z,99.90
2018-06-10T23:54:26.768Z,99.90
2018-06-10T23:56:56.092Z,99.90
2018-06-10T23:59:25.342Z,99.90
